Time;durP1;ratioP1;P1;durP2;ratioP2;P2;SDS_P1;SDS_P2;PMS_P1;PMS_P2;Temp;Humidity;BMP_temperature;BMP_pressure;BME280_temperature;BME280_humidity;BME280_pressure;Samples;Min_cycle;Max_cycle;Signal;HPM_P1;HPM_P2
2022/07/17 00:01:05;;;;;;;67.33;3.63;;;18.60;1.00;;;;;;5081935;28;20531;-83
2022/07/17 00:03:31;;;;;;;69.53;3.90;;;18.60;1.00;;;;;;5081941;28;20452;-83
2022/07/17 00:05:56;;;;;;;66.27;3.10;;;18.60;1.00;;;;;;5081412;28;20535;-83
2022/07/17 00:08:23;;;;;;;74.10;4.23;;;18.60;1.00;;;;;;5063557;28;20208;-83
2022/07/17 00:10:49;;;;;;;67.90;4.10;;;18.50;1.00;;;;;;5082330;28;20182;-84
2022/07/17 00:13:14;;;;;;;68.03;3.70;;;18.50;1.00;;;;;;5082141;28;20398;-84
2022/07/17 00:15:40;;;;;;;74.00;3.53;;;18.50;1.00;;;;;;5081074;28;20674;-83
2022/07/17 00:18:07;;;;;;;67.23;3.60;;;18.50;1.00;;;;;;5081215;28;20546;-83
2022/07/17 00:20:33;;;;;;;67.50;3.70;;;18.40;1.00;;;;;;5080476;28;20409;-83
2022/07/17 00:22:59;;;;;;;67.67;3.60;;;18.40;1.00;;;;;;5081923;28;20472;-83
2022/07/17 00:25:25;;;;;;;68.00;4.07;;;18.40;1.00;;;;;;5063256;28;20853;-84
2022/07/17 00:27:51;;;;;;;67.87;3.80;;;18.40;1.00;;;;;;5062135;28;20200;-83
2022/07/17 00:30:17;;;;;;;67.77;4.00;;;18.30;1.00;;;;;;5080795;28;20452;-83
2022/07/17 00:32:43;;;;;;;69.43;3.97;;;18.30;1.00;;;;;;5062124;28;20263;-83
2022/07/17 00:35:09;;;;;;;69.23;3.97;;;18.20;1.00;;;;;;5080992;28;20429;-83
2022/07/17 00:37:43;;;;;;;67.87;4.70;;;18.20;1.00;;;;;;5228876;22;20215;-81
2022/07/17 00:42:42;;;;;;;71.07;3.87;;;18.20;1.00;;;;;;5059901;28;20447;-83
2022/07/17 00:45:09;;;;;;;68.00;3.90;;;18.10;1.00;;;;;;5061079;28;20487;-83
2022/07/17 00:47:49;;;;;;;66.87;3.63;;;18.20;1.00;;;;;;5061000;28;20459;-83
2022/07/17 00:50:15;;;;;;;67.47;4.23;;;18.10;1.00;;;;;;5062114;28;20874;-83
2022/07/17 00:52:41;;;;;;;70.30;4.40;;;18.10;1.00;;;;;;5061148;28;20801;-83
2022/07/17 00:55:08;;;;;;;68.20;4.30;;;18.10;1.00;;;;;;5059602;28;20411;-83
2022/07/17 00:57:39;;;;;;;66.97;4.40;;;18.00;1.00;;;;;;5059720;28;20197;-83
2022/07/17 01:00:10;;;;;;;67.00;3.67;;;18.00;1.00;;;;;;5059473;28;20937;-83
2022/07/17 01:02:37;;;;;;;69.67;3.73;;;18.00;1.00;;;;;;5058717;28;20472;-83
2022/07/17 01:05:06;;;;;;;68.80;4.20;;;17.90;1.00;;;;;;5061304;28;20425;-83
2022/07/17 01:07:32;;;;;;;67.73;3.97;;;17.90;1.00;;;;;;5060891;28;20458;-83
2022/07/17 01:09:58;;;;;;;67.67;4.70;;;17.80;1.00;;;;;;5060733;28;20435;-83
2022/07/17 01:12:24;;;;;;;67.70;4.80;;;17.80;1.00;;;;;;5060749;28;20814;-83
2022/07/17 01:14:52;;;;;;;85.27;5.80;;;17.80;1.00;;;;;;5060707;28;20164;-83
2022/07/17 01:17:17;;;;;;;68.40;4.37;;;17.80;1.00;;;;;;5060703;28;20447;-83
2022/07/17 01:19:43;;;;;;;67.57;5.17;;;17.70;1.00;;;;;;5060778;28;20410;-83
2022/07/17 01:22:09;;;;;;;67.80;4.70;;;17.70;1.00;;;;;;5061008;28;20165;-83
2022/07/17 01:24:39;;;;;;;69.40;4.50;;;17.60;1.00;;;;;;5060255;28;20176;-83
2022/07/17 01:27:05;;;;;;;67.90;4.90;;;17.60;1.00;;;;;;5059891;28;20160;-83
2022/07/17 01:29:31;;;;;;;67.67;5.03;;;17.70;1.00;;;;;;5060528;28;20404;-83
2022/07/17 01:31:57;;;;;;;70.20;5.30;;;17.60;1.00;;;;;;5060191;28;20919;-83
2022/07/17 01:34:23;;;;;;;67.20;5.03;;;17.60;1.00;;;;;;5058375;28;20959;-82
2022/07/17 01:36:48;;;;;;;69.57;5.80;;;17.50;1.00;;;;;;5060411;28;20224;-83
2022/07/17 01:39:14;;;;;;;69.33;6.97;;;17.50;1.00;;;;;;5060389;28;20623;-83
2022/07/17 01:41:40;;;;;;;67.77;5.90;;;17.50;1.00;;;;;;5071970;28;20214;-83
2022/07/17 01:44:07;;;;;;;74.23;7.33;;;17.50;1.00;;;;;;5079872;28;20163;-83
2022/07/17 01:46:32;;;;;;;69.10;6.90;;;17.50;1.00;;;;;;5062246;28;20459;-83
2022/07/17 01:49:00;;;;;;;72.97;8.07;;;17.40;1.00;;;;;;5079692;28;20450;-82
2022/07/17 01:51:29;;;;;;;71.87;8.03;;;17.40;1.00;;;;;;5061892;28;20164;-83
2022/07/17 01:53:55;;;;;;;68.67;9.10;;;17.40;1.00;;;;;;5061706;28;20417;-83
2022/07/17 01:56:21;;;;;;;69.20;7.30;;;17.30;1.00;;;;;;5061866;28;20936;-83
2022/07/17 01:58:47;;;;;;;71.77;10.40;;;17.30;1.00;;;;;;5080182;28;20195;-83
2022/07/17 02:01:12;;;;;;;69.50;9.50;;;17.30;1.00;;;;;;5079629;28;20402;-83
2022/07/17 02:03:38;;;;;;;69.87;10.47;;;17.20;1.00;;;;;;5060772;28;20179;-82
2022/07/17 02:06:04;;;;;;;69.80;11.50;;;17.20;1.00;;;;;;5079668;28;20159;-83
2022/07/17 02:08:29;;;;;;;71.17;10.67;;;17.20;1.00;;;;;;5078665;28;20241;-82
2022/07/17 02:10:55;;;;;;;72.30;12.93;;;17.20;1.00;;;;;;5061037;28;20233;-83
2022/07/17 02:13:21;;;;;;;71.27;12.20;;;17.10;1.00;;;;;;5079256;28;20247;-83
2022/07/17 02:15:46;;;;;;;71.70;10.70;;;17.10;1.00;;;;;;5061871;28;20160;-83
2022/07/17 02:18:12;;;;;;;69.70;12.20;;;17.10;1.00;;;;;;5080027;28;20321;-83
2022/07/17 02:20:38;;;;;;;72.30;11.87;;;17.00;1.00;;;;;;5061888;28;20179;-83
2022/07/17 02:23:03;;;;;;;71.50;13.97;;;17.00;1.00;;;;;;5080065;28;20168;-83
2022/07/17 02:25:29;;;;;;;73.00;13.73;;;17.00;1.00;;;;;;5079567;28;20228;-83
2022/07/17 02:27:55;;;;;;;70.27;12.27;;;17.00;1.00;;;;;;5079494;28;20196;-83
2022/07/17 02:30:20;;;;;;;73.87;13.20;;;17.00;1.00;;;;;;5079595;28;20164;-83
2022/07/17 02:32:46;;;;;;;70.30;12.30;;;16.90;1.00;;;;;;5079396;28;20187;-83
2022/07/17 02:35:12;;;;;;;71.80;13.00;;;16.90;1.00;;;;;;5078655;28;20590;-83
2022/07/17 02:37:39;;;;;;;69.40;10.90;;;16.90;1.00;;;;;;5079363;28;20188;-83
2022/07/17 02:40:05;;;;;;;71.00;12.60;;;16.90;1.00;;;;;;5160355;22;20505;-81
2022/07/17 02:42:31;;;;;;;71.10;10.80;;;16.80;1.00;;;;;;5085864;28;20812;-80
2022/07/17 02:44:58;;;;;;;68.97;10.67;;;16.80;1.00;;;;;;5086040;28;20394;-80
2022/07/17 02:47:30;;;;;;;71.83;10.47;;;16.70;1.10;;;;;;5086921;28;20441;-80
2022/07/17 02:49:56;;;;;;;68.77;9.97;;;16.80;1.00;;;;;;5086894;28;20422;-80
2022/07/17 02:52:22;;;;;;;70.27;10.17;;;16.80;1.00;;;;;;5087340;28;20399;-80
2022/07/17 02:54:48;;;;;;;72.57;12.83;;;16.70;1.80;;;;;;5087892;28;20405;-80
2022/07/17 02:57:14;;;;;;;69.40;8.27;;;16.70;2.10;;;;;;5086914;28;20457;-80
2022/07/17 02:59:40;;;;;;;67.63;7.80;;;16.70;3.10;;;;;;5085821;28;20654;-80
2022/07/17 03:02:05;;;;;;;69.77;9.30;;;16.60;4.40;;;;;;5087124;28;20424;-79
2022/07/17 03:04:31;;;;;;;68.00;7.67;;;16.60;4.90;;;;;;5086349;28;20406;-79
2022/07/17 03:06:57;;;;;;;72.53;9.00;;;16.60;5.10;;;;;;5087168;28;20164;-79
2022/07/17 03:09:23;;;;;;;71.67;8.40;;;16.60;5.60;;;;;;5086974;28;20167;-79
2022/07/17 03:11:48;;;;;;;69.53;7.53;;;16.60;5.90;;;;;;5086430;28;20168;-79
2022/07/17 03:14:14;;;;;;;68.90;6.93;;;16.50;8.40;;;;;;5086956;28;20623;-79
2022/07/17 03:16:39;;;;;;;68.27;7.80;;;16.50;8.00;;;;;;5086723;28;20160;-79
2022/07/17 03:19:05;;;;;;;69.70;7.37;;;16.40;7.90;;;;;;5086936;28;20218;-79
2022/07/17 03:21:31;;;;;;;67.80;6.03;;;16.40;10.00;;;;;;5086949;28;20167;-79
2022/07/17 03:23:56;;;;;;;68.67;5.70;;;16.30;11.00;;;;;;5085968;28;20167;-79
2022/07/17 03:26:22;;;;;;;68.13;7.30;;;16.30;11.00;;;;;;5086693;28;20164;-79
2022/07/17 03:28:48;;;;;;;68.60;7.00;;;16.40;11.10;;;;;;5085994;28;20266;-79
2022/07/17 03:31:14;;;;;;;71.20;6.30;;;16.30;11.10;;;;;;5086365;28;20218;-79
2022/07/17 03:33:39;;;;;;;69.00;7.10;;;16.30;10.90;;;;;;5086191;28;20219;-79
2022/07/17 03:36:06;;;;;;;69.77;6.53;;;16.30;10.50;;;;;;5086275;28;20156;-79
2022/07/17 03:38:32;;;;;;;68.00;6.10;;;16.30;10.40;;;;;;5086031;28;20263;-79
2022/07/17 03:40:57;;;;;;;68.47;6.87;;;16.30;10.00;;;;;;5087003;28;20475;-79
2022/07/17 03:43:23;;;;;;;68.17;5.67;;;16.20;11.20;;;;;;5086770;28;20409;-79
2022/07/17 03:45:49;;;;;;;68.83;5.60;;;16.20;12.20;;;;;;5085914;28;20171;-79
2022/07/17 03:48:15;;;;;;;68.07;7.00;;;16.10;13.70;;;;;;5086229;28;20210;-79
2022/07/17 03:50:40;;;;;;;69.13;5.60;;;16.10;14.10;;;;;;5086213;28;20206;-79
2022/07/17 03:53:06;;;;;;;67.77;6.53;;;16.10;13.60;;;;;;5086835;28;20880;-79
2022/07/17 03:55:32;;;;;;;69.37;6.90;;;16.10;12.60;;;;;;5086165;28;20183;-79
2022/07/17 03:57:58;;;;;;;70.50;6.37;;;16.10;12.80;;;;;;5086542;28;20558;-79
2022/07/17 04:00:23;;;;;;;68.93;6.70;;;16.20;11.40;;;;;;5086178;28;20435;-79
2022/07/17 04:02:49;;;;;;;71.13;5.93;;;16.10;11.70;;;;;;5086325;28;20477;-80
2022/07/17 04:05:15;;;;;;;71.87;6.20;;;16.10;12.20;;;;;;5085733;28;20170;-79
2022/07/17 04:07:42;;;;;;;69.67;7.07;;;16.00;13.10;;;;;;5086126;28;20207;-79
2022/07/17 04:10:10;;;;;;;68.83;7.30;;;16.00;14.30;;;;;;5086235;28;20526;-81
2022/07/17 04:12:37;;;;;;;69.03;8.53;;;15.90;16.40;;;;;;5086005;28;20393;-80
2022/07/17 04:15:03;;;;;;;73.60;9.03;;;16.00;17.90;;;;;;5085565;28;20905;-79
2022/07/17 04:17:29;;;;;;;70.90;12.30;;;16.00;18.60;;;;;;5085491;28;20429;-80
2022/07/17 04:19:55;;;;;;;69.27;14.57;;;16.00;20.00;;;;;;5086291;28;20914;-80
2022/07/17 04:22:21;;;;;;;73.33;10.60;;;16.00;20.70;;;;;;5086563;28;20171;-80
2022/07/17 04:24:46;;;;;;;71.50;13.87;;;16.00;19.70;;;;;;5086375;28;20175;-80
2022/07/17 04:27:13;;;;;;;70.47;13.13;;;16.00;20.80;;;;;;5086407;28;20217;-80
2022/07/17 04:29:39;;;;;;;77.27;15.07;;;16.00;21.10;;;;;;5087055;28;20160;-80
2022/07/17 04:32:05;;;;;;;72.60;16.87;;;16.00;21.60;;;;;;5086499;28;20852;-79
2022/07/17 04:34:32;;;;;;;71.00;15.90;;;16.10;21.20;;;;;;5086013;28;20394;-80
2022/07/17 04:36:58;;;;;;;74.27;16.60;;;16.10;21.00;;;;;;5086273;28;20408;-80
2022/07/17 04:39:23;;;;;;;72.77;20.97;;;16.10;22.10;;;;;;5089593;28;20442;-80
2022/07/17 04:41:50;;;;;;;74.97;23.83;;;16.10;22.80;;;;;;5089497;28;20158;-80
2022/07/17 04:44:17;;;;;;;76.40;28.63;;;16.10;24.30;;;;;;5088046;28;20191;-80
2022/07/17 04:46:44;;;;;;;79.00;30.10;;;16.10;25.60;;;;;;5088973;28;20432;-80
2022/07/17 04:49:09;;;;;;;75.47;30.93;;;16.20;26.30;;;;;;5089270;28;20467;-80
2022/07/17 04:51:35;;;;;;;75.50;26.17;;;16.40;29.70;;;;;;5089636;28;20409;-80
2022/07/17 04:54:01;;;;;;;69.30;10.10;;;16.80;30.00;;;;;;5089479;28;20171;-80
2022/07/17 04:56:26;;;;;;;71.37;5.20;;;17.20;26.00;;;;;;5089074;28;20623;-80
2022/07/17 04:58:52;;;;;;;68.40;4.70;;;17.60;21.50;;;;;;5089160;28;20195;-80
2022/07/17 05:01:18;;;;;;;69.20;4.40;;;17.90;17.00;;;;;;5088495;28;20172;-80
2022/07/17 05:03:44;;;;;;;71.50;4.43;;;18.10;13.00;;;;;;5089259;28;20171;-80
2022/07/17 05:06:10;;;;;;;67.73;5.30;;;18.30;7.40;;;;;;5088942;28;20180;-80
2022/07/17 05:08:36;;;;;;;70.70;5.10;;;18.30;5.00;;;;;;5088988;28;20203;-79
2022/07/17 05:11:02;;;;;;;68.13;5.10;;;18.20;2.90;;;;;;5088835;28;20424;-79
2022/07/17 05:13:28;;;;;;;68.37;5.00;;;18.10;4.20;;;;;;5088754;28;20403;-79
2022/07/17 05:15:53;;;;;;;68.37;5.13;;;17.90;7.50;;;;;;5088608;28;20152;-79
2022/07/17 05:18:19;;;;;;;68.67;5.70;;;17.70;10.50;;;;;;5088839;28;20191;-79
2022/07/17 05:20:45;;;;;;;67.37;6.00;;;17.70;12.00;;;;;;5088647;28;20184;-80
2022/07/17 05:23:11;;;;;;;69.40;6.60;;;17.60;14.30;;;;;;5089057;28;20176;-80
2022/07/17 05:25:36;;;;;;;72.13;7.70;;;17.50;17.20;;;;;;5089050;28;20195;-80
2022/07/17 05:28:02;;;;;;;70.20;8.40;;;17.40;17.40;;;;;;5089153;28;20466;-80
2022/07/17 05:30:29;;;;;;;76.17;12.70;;;17.40;19.70;;;;;;5088076;28;20658;-80
2022/07/17 05:32:55;;;;;;;71.17;9.97;;;17.30;20.50;;;;;;5089023;28;20398;-80
2022/07/17 05:35:21;;;;;;;70.87;10.90;;;17.40;20.70;;;;;;5089002;28;20428;-80
2022/07/17 05:37:47;;;;;;;69.97;10.00;;;17.30;22.30;;;;;;5088471;28;20183;-80
2022/07/17 05:40:13;;;;;;;73.27;18.03;;;17.30;25.10;;;;;;5089252;28;20430;-80
2022/07/17 05:42:38;;;;;;;77.20;15.80;;;17.20;24.70;;;;;;5089331;28;20156;-79
2022/07/17 05:45:04;;;;;;;72.83;8.57;;;17.20;24.40;;;;;;5088658;28;20459;-80
2022/07/17 05:47:30;;;;;;;73.27;9.13;;;17.20;24.50;;;;;;5088214;28;20200;-80
2022/07/17 05:49:56;;;;;;;75.67;22.97;;;17.10;27.00;;;;;;5088998;28;20773;-80
2022/07/17 05:52:22;;;;;;;77.80;21.47;;;17.00;28.50;;;;;;5088181;28;20167;-80
2022/07/17 05:54:48;;;;;;;76.63;29.63;;;16.90;33.00;;;;;;5088661;28;20466;-80
2022/07/17 05:57:14;;;;;;;76.30;31.77;;;16.80;36.60;;;;;;5088717;28;20192;-80
2022/07/17 05:59:39;;;;;;;77.43;32.60;;;16.60;41.30;;;;;;5088262;28;20171;-80
2022/07/17 06:02:05;;;;;;;78.60;25.53;;;16.70;37.50;;;;;;5088100;28;20224;-80
2022/07/17 06:04:31;;;;;;;75.60;26.83;;;16.80;37.00;;;;;;5087936;28;20164;-80
2022/07/17 06:06:57;;;;;;;78.60;28.40;;;16.90;34.90;;;;;;5087134;28;20214;-79
2022/07/17 06:09:22;;;;;;;75.40;29.03;;;16.90;37.10;;;;;;5086748;28;20196;-79
2022/07/17 06:11:48;;;;;;;76.27;29.47;;;16.80;35.10;;;;;;5087221;28;20167;-80
2022/07/17 06:14:14;;;;;;;78.53;35.80;;;16.90;35.20;;;;;;5087360;28;20164;-80
2022/07/17 06:16:40;;;;;;;89.00;55.33;;;16.70;41.50;;;;;;5087858;28;20163;-80
2022/07/17 06:19:05;;;;;;;83.97;44.47;;;16.50;43.00;;;;;;5088093;28;20445;-80
2022/07/17 06:21:31;;;;;;;82.70;41.53;;;16.60;48.40;;;;;;5087153;28;20175;-80
2022/07/17 06:23:57;;;;;;;85.67;55.40;;;16.70;44.30;;;;;;5087048;28;20579;-80
2022/07/17 06:26:23;;;;;;;91.53;68.83;;;16.70;47.30;;;;;;5087451;28;20410;-80
2022/07/17 06:28:49;;;;;;;86.33;57.33;;;16.70;48.10;;;;;;5088268;28;20251;-80
2022/07/17 06:31:14;;;;;;;82.93;46.27;;;16.60;46.50;;;;;;5087989;28;20164;-80
2022/07/17 06:33:40;;;;;;;87.30;47.50;;;16.70;50.80;;;;;;5086940;28;20242;-80
2022/07/17 06:36:06;;;;;;;79.80;42.17;;;16.80;44.60;;;;;;5087400;28;20165;-80
2022/07/17 06:38:33;;;;;;;82.70;50.83;;;16.90;45.70;;;;;;5086299;28;20232;-80
2022/07/17 06:40:59;;;;;;;80.00;36.50;;;16.80;44.80;;;;;;5086464;28;20168;-80
2022/07/17 06:43:25;;;;;;;86.37;42.87;;;17.00;47.10;;;;;;5087591;28;20747;-80
2022/07/17 06:45:53;;;;;;;79.50;41.53;;;17.10;42.60;;;;;;5087917;28;20445;-80
2022/07/17 06:48:20;;;;;;;80.37;44.57;;;17.10;42.50;;;;;;5087373;28;20246;-80
2022/07/17 06:50:46;;;;;;;84.73;47.57;;;17.20;38.50;;;;;;5087678;28;20456;-80
2022/07/17 06:53:12;;;;;;;78.20;31.67;;;17.10;41.00;;;;;;5086645;28;20403;-80
2022/07/17 06:55:38;;;;;;;81.67;41.27;;;17.20;38.60;;;;;;5086934;28;20426;-80
2022/07/17 06:58:04;;;;;;;81.13;37.57;;;17.20;38.30;;;;;;5087103;28;20180;-80
2022/07/17 07:00:30;;;;;;;77.63;35.07;;;17.20;40.50;;;;;;5087495;28;20473;-80
2022/07/17 07:02:56;;;;;;;84.30;34.70;;;17.30;39.40;;;;;;5087234;28;20467;-80
2022/07/17 07:05:21;;;;;;;79.10;42.17;;;17.30;41.40;;;;;;5086726;28;20406;-80
2022/07/17 07:07:47;;;;;;;79.27;36.00;;;17.30;43.80;;;;;;5086999;28;20192;-80
2022/07/17 07:10:13;;;;;;;78.70;36.57;;;17.40;45.70;;;;;;5087587;28;20160;-80
2022/07/17 07:12:39;;;;;;;79.63;37.93;;;17.30;43.50;;;;;;5086635;28;20215;-80
2022/07/17 07:15:05;;;;;;;81.60;32.20;;;17.40;39.90;;;;;;5087193;28;20405;-80
2022/07/17 07:17:31;;;;;;;75.50;32.07;;;17.60;46.50;;;;;;5086896;28;20196;-80
2022/07/17 07:19:58;;;;;;;81.23;35.17;;;17.60;51.20;;;;;;5085852;28;20422;-80
2022/07/17 07:22:24;;;;;;;76.20;26.13;;;17.70;45.80;;;;;;5085667;28;20440;-80
2022/07/17 07:24:49;;;;;;;78.27;25.93;;;17.70;46.20;;;;;;5087270;28;20430;-80
2022/07/17 07:27:15;;;;;;;76.70;23.27;;;17.80;47.10;;;;;;5087351;28;20191;-80
2022/07/17 07:29:41;;;;;;;74.93;26.10;;;17.90;47.50;;;;;;5086928;28;20160;-80
2022/07/17 07:32:06;;;;;;;76.47;22.30;;;18.00;45.70;;;;;;5087405;28;20163;-80
2022/07/17 07:34:32;;;;;;;74.93;22.13;;;18.00;36.90;;;;;;5086984;28;20163;-80
2022/07/17 07:36:58;;;;;;;78.10;22.67;;;18.10;38.10;;;;;;5086965;28;20235;-80
2022/07/17 07:39:24;;;;;;;74.57;24.13;;;18.20;37.30;;;;;;5087229;28;20211;-80
2022/07/17 07:41:49;;;;;;;77.40;21.67;;;18.20;38.60;;;;;;5086151;28;20179;-80
2022/07/17 07:44:18;;;;;;;83.73;23.30;;;18.30;36.10;;;;;;5084733;28;20214;-80
2022/07/17 07:46:44;;;;;;;75.70;22.63;;;18.30;33.70;;;;;;5086816;28;20175;-80
2022/07/17 07:49:10;;;;;;;78.17;26.77;;;18.40;34.70;;;;;;5086515;28;20445;-80
2022/07/17 07:51:35;;;;;;;82.23;29.40;;;18.50;30.50;;;;;;5086158;28;20167;-80
2022/07/17 07:54:01;;;;;;;75.97;23.00;;;18.50;27.90;;;;;;5086730;28;20421;-80
2022/07/17 07:56:27;;;;;;;78.03;25.53;;;18.60;31.70;;;;;;5085439;28;20182;-80
2022/07/17 07:58:53;;;;;;;74.07;19.97;;;18.70;25.60;;;;;;5086616;28;20424;-80
2022/07/17 08:01:19;;;;;;;76.53;21.90;;;18.80;23.10;;;;;;5086234;28;20485;-80
2022/07/17 08:03:45;;;;;;;71.47;11.40;;;18.80;21.60;;;;;;5086960;28;20221;-80
2022/07/17 08:06:11;;;;;;;70.20;7.23;;;18.90;16.60;;;;;;5086653;28;20191;-80
2022/07/17 08:08:36;;;;;;;69.03;5.90;;;19.00;10.50;;;;;;5084464;28;20536;-80
2022/07/17 08:11:02;;;;;;;68.20;6.80;;;18.90;9.40;;;;;;5087878;28;20476;-80
2022/07/17 08:13:28;;;;;;;67.47;5.13;;;19.00;11.50;;;;;;5090160;28;20191;-80
2022/07/17 08:15:53;;;;;;;67.60;3.80;;;19.10;6.40;;;;;;5089704;28;20164;-80
2022/07/17 08:18:20;;;;;;;66.97;4.13;;;19.20;3.20;;;;;;5086641;28;20199;-80
2022/07/17 08:20:45;;;;;;;68.27;4.70;;;19.20;1.00;;;;;;5089471;28;20251;-80
2022/07/17 08:23:11;;;;;;;69.23;4.87;;;19.30;1.00;;;;;;5089538;28;20409;-80
2022/07/17 08:25:37;;;;;;;69.87;4.63;;;19.40;1.00;;;;;;5089707;28;20243;-80
2022/07/17 08:28:04;;;;;;;66.93;4.47;;;19.40;1.00;;;;;;5089361;28;20195;-80
2022/07/17 08:30:34;;;;;;;70.40;5.10;;;19.50;1.00;;;;;;5089691;28;20164;-80
2022/07/17 08:33:01;;;;;;;66.67;3.97;;;19.60;1.00;;;;;;5088259;28;20434;-80
2022/07/17 08:35:26;;;;;;;70.00;5.10;;;19.60;1.00;;;;;;5088954;28;20406;-80
2022/07/17 08:37:53;;;;;;;70.97;4.90;;;19.70;1.00;;;;;;5089459;28;20422;-80
2022/07/17 08:40:28;;;;;;;67.47;4.80;;;19.70;1.00;;;;;;5153520;22;20231;-83
2022/07/17 08:42:55;;;;;;;67.97;5.07;;;19.80;1.00;;;;;;5081657;28;20402;-81
2022/07/17 08:45:21;;;;;;;73.43;4.80;;;19.90;1.00;;;;;;5062617;28;20403;-81
2022/07/17 08:47:47;;;;;;;66.97;3.90;;;20.00;1.00;;;;;;5080857;28;20473;-83
2022/07/17 08:50:13;;;;;;;68.83;4.50;;;20.00;1.00;;;;;;5063479;28;20807;-83
2022/07/17 08:52:41;;;;;;;67.70;4.30;;;20.10;1.00;;;;;;5081418;28;21012;-83
2022/07/17 08:55:12;;;;;;;67.47;3.40;;;20.20;1.00;;;;;;5081065;28;20403;-83
2022/07/17 08:57:39;;;;;;;67.00;3.60;;;20.30;1.00;;;;;;5063000;28;20997;-83
2022/07/17 09:00:06;;;;;;;66.70;2.87;;;20.40;1.00;;;;;;5063432;28;20433;-83
2022/07/17 09:02:32;;;;;;;68.60;2.90;;;20.40;1.00;;;;;;5080939;28;20409;-83
2022/07/17 09:04:58;;;;;;;69.10;3.33;;;20.50;1.00;;;;;;5082053;28;20463;-83
2022/07/17 09:07:23;;;;;;;66.47;3.30;;;20.50;1.00;;;;;;5080284;28;20210;-83
2022/07/17 09:09:50;;;;;;;69.13;3.50;;;20.50;1.00;;;;;;5081198;28;20194;-83
2022/07/17 09:12:16;;;;;;;66.50;2.83;;;20.60;1.00;;;;;;5081351;28;20154;-83
2022/07/17 09:14:42;;;;;;;65.83;3.00;;;20.70;1.00;;;;;;5080811;28;20465;-84
2022/07/17 09:17:10;;;;;;;68.17;4.80;;;20.70;1.00;;;;;;5081592;28;20247;-83
2022/07/17 09:19:39;;;;;;;69.90;5.33;;;20.80;1.00;;;;;;5080406;28;20160;-83
2022/07/17 09:22:14;;;;;;;69.60;4.83;;;20.80;1.00;;;;;;5079626;28;20398;-83
2022/07/17 09:24:47;;;;;;;68.30;4.00;;;20.80;1.00;;;;;;5061731;28;20493;-82
2022/07/17 09:27:18;;;;;;;66.87;3.27;;;20.90;1.00;;;;;;5078948;28;20412;-81
2022/07/17 09:30:10;;;;;;;68.03;4.87;;;21.10;1.00;;;;;;5079192;28;20884;-82
2022/07/17 09:32:41;;;;;;;67.73;5.83;;;21.20;1.00;;;;;;5080268;28;20378;-82
2022/07/17 09:35:09;;;;;;;69.77;6.93;;;21.40;1.00;;;;;;5080626;28;20386;-82
2022/07/17 09:37:36;;;;;;;70.13;7.40;;;21.40;1.00;;;;;;5079443;28;20522;-82
2022/07/17 09:40:08;;;;;;;68.97;6.70;;;21.50;1.00;;;;;;5080379;28;21000;-82
2022/07/17 09:42:34;;;;;;;67.77;6.90;;;21.60;1.00;;;;;;5061921;28;20438;-83
2022/07/17 09:45:08;;;;;;;67.97;7.00;;;21.70;1.00;;;;;;5079586;28;20400;-81
2022/07/17 09:47:36;;;;;;;68.57;7.17;;;21.90;1.00;;;;;;5062209;28;20199;-82
2022/07/17 09:50:05;;;;;;;68.40;8.30;;;22.00;1.00;;;;;;5061132;28;20418;-82
2022/07/17 09:52:33;;;;;;;69.17;6.50;;;22.20;1.00;;;;;;5079314;28;20398;-82
2022/07/17 09:55:00;;;;;;;72.60;4.07;;;22.30;1.00;;;;;;5060878;28;20406;-82
2022/07/17 09:57:29;;;;;;;69.70;4.63;;;22.50;1.00;;;;;;5078383;28;20448;-82
2022/07/17 09:59:58;;;;;;;68.30;3.10;;;22.70;1.00;;;;;;5060496;28;20426;-82
2022/07/17 10:02:24;;;;;;;71.17;2.83;;;22.80;1.00;;;;;;5078288;28;20432;-82
2022/07/17 10:04:51;;;;;;;66.47;2.93;;;22.90;1.00;;;;;;5078083;28;20403;-81
2022/07/17 10:07:18;;;;;;;69.40;2.90;;;23.00;1.00;;;;;;5082914;28;20445;-82
2022/07/17 10:09:44;;;;;;;66.73;2.37;;;23.00;1.00;;;;;;5063421;28;20917;-82
2022/07/17 10:12:10;;;;;;;67.00;2.70;;;23.10;1.00;;;;;;5079194;28;20413;-82
2022/07/17 10:14:40;;;;;;;66.30;2.73;;;23.20;1.00;;;;;;5061098;28;20938;-83
2022/07/17 10:17:11;;;;;;;71.80;2.93;;;23.40;1.00;;;;;;5079160;28;20407;-82
2022/07/17 10:19:50;;;;;;;68.40;2.73;;;23.20;1.00;;;;;;5061177;28;20414;-82
2022/07/17 10:22:16;;;;;;;68.47;2.80;;;23.30;1.00;;;;;;5079447;28;20402;-83
2022/07/17 10:25:04;;;;;;;66.60;2.70;;;23.60;1.00;;;;;;5061249;28;20560;-82
2022/07/17 10:27:31;;;;;;;68.77;3.07;;;23.80;1.00;;;;;;5079011;28;20810;-82
2022/07/17 10:30:00;;;;;;;69.10;2.90;;;23.90;1.00;;;;;;5060865;28;20466;-82
2022/07/17 10:32:29;;;;;;;66.73;3.10;;;24.10;1.00;;;;;;5079241;28;20403;-82
2022/07/17 10:35:01;;;;;;;66.80;2.83;;;24.30;1.00;;;;;;5061291;28;20909;-82
2022/07/17 10:37:31;;;;;;;67.70;2.37;;;24.30;1.00;;;;;;5078747;28;20426;-82
2022/07/17 10:40:15;;;;;;;70.23;2.50;;;24.40;1.00;;;;;;5061333;28;20438;-82
2022/07/17 10:42:44;;;;;;;69.37;2.67;;;24.90;1.00;;;;;;5078735;28;20387;-83
2022/07/17 10:45:33;;;;;;;66.70;2.30;;;25.20;1.00;;;;;;5078768;28;20403;-83
2022/07/17 10:48:05;;;;;;;66.97;2.97;;;25.30;1.00;;;;;;5060528;28;20502;-83
2022/07/17 10:50:38;;;;;;;66.63;2.47;;;25.40;1.00;;;;;;5078957;28;20388;-83
2022/07/17 10:53:20;;;;;;;68.57;2.47;;;25.50;1.00;;;;;;5079278;28;20886;-83
2022/07/17 10:55:49;;;;;;;66.07;2.23;;;25.60;1.00;;;;;;5060352;28;20407;-82
2022/07/17 10:58:15;;;;;;;69.67;2.47;;;26.00;1.00;;;;;;5059385;28;20858;-81
2022/07/17 11:00:41;;;;;;;68.07;2.17;;;26.20;1.00;;;;;;5057881;28;20471;-82
2022/07/17 11:03:13;;;;;;;67.13;2.87;;;26.50;1.00;;;;;;5076320;28;20891;-82
2022/07/17 11:05:39;;;;;;;70.30;2.70;;;26.50;1.00;;;;;;5076467;28;20645;-81
2022/07/17 11:08:09;;;;;;;69.73;2.30;;;26.50;1.00;;;;;;5075157;28;20926;-82
2022/07/17 11:10:36;;;;;;;67.80;3.00;;;26.80;1.00;;;;;;5076106;28;20402;-82
2022/07/17 11:13:14;;;;;;;67.10;2.67;;;27.00;1.00;;;;;;5057311;28;20406;-82
2022/07/17 11:15:45;;;;;;;67.10;2.60;;;27.10;1.00;;;;;;5075723;28;20409;-81
2022/07/17 11:18:13;;;;;;;66.70;2.33;;;26.90;1.00;;;;;;5074972;28;20793;-82
2022/07/17 11:20:53;;;;;;;66.77;2.43;;;27.00;1.00;;;;;;5075004;28;20406;-81
2022/07/17 11:23:21;;;;;;;67.47;2.47;;;27.00;1.00;;;;;;5075392;28;20417;-81
2022/07/17 11:25:58;;;;;;;68.17;2.20;;;27.20;1.00;;;;;;5075963;28;20493;-82
2022/07/17 11:28:33;;;;;;;67.20;2.37;;;27.20;1.00;;;;;;5058451;28;20460;-82
2022/07/17 11:31:00;;;;;;;66.50;2.10;;;27.20;1.00;;;;;;5075410;28;20413;-81
2022/07/17 11:33:29;;;;;;;70.30;2.37;;;27.30;1.00;;;;;;5075493;28;20537;-82
2022/07/17 11:35:55;;;;;;;66.70;2.10;;;27.20;1.00;;;;;;5076992;28;20403;-83
2022/07/17 11:38:26;;;;;;;66.40;2.03;;;27.20;1.00;;;;;;5078246;28;20453;-82
2022/07/17 11:40:52;;;;;;;66.60;2.00;;;27.10;1.00;;;;;;5061192;28;20430;-83
2022/07/17 11:43:18;;;;;;;65.67;2.20;;;27.30;1.00;;;;;;5080212;28;20778;-83
2022/07/17 11:45:44;;;;;;;67.40;2.37;;;27.20;1.00;;;;;;5080354;28;20410;-83
2022/07/17 11:48:10;;;;;;;70.57;2.40;;;27.30;1.00;;;;;;5082450;28;20520;-83
2022/07/17 11:50:37;;;;;;;67.73;2.00;;;27.60;1.00;;;;;;5064245;28;20475;-84
2022/07/17 11:53:05;;;;;;;66.30;2.20;;;27.90;1.00;;;;;;5064518;28;20905;-83
2022/07/17 11:55:39;;;;;;;68.20;2.20;;;28.00;1.00;;;;;;5064267;28;20588;-83
2022/07/17 11:58:05;;;;;;;67.63;2.37;;;28.20;1.00;;;;;;5082464;28;20810;-83
2022/07/17 12:00:31;;;;;;;68.77;2.53;;;28.20;1.00;;;;;;5064095;28;20414;-83
2022/07/17 12:03:02;;;;;;;66.10;1.83;;;28.40;1.00;;;;;;5081985;28;20431;-83
2022/07/17 12:05:29;;;;;;;68.20;1.80;;;28.60;1.00;;;;;;5064142;28;20841;-83
2022/07/17 12:07:56;;;;;;;66.73;1.87;;;28.70;1.00;;;;;;5082504;28;20485;-83
2022/07/17 12:10:24;;;;;;;67.00;2.10;;;28.60;1.00;;;;;;5082071;28;20410;-84
2022/07/17 12:13:02;;;;;;;70.20;2.57;;;28.60;1.00;;;;;;5064036;28;20948;-84
2022/07/17 12:15:38;;;;;;;68.80;2.83;;;28.50;1.00;;;;;;5082812;28;20533;-83
2022/07/17 12:18:05;;;;;;;66.73;2.43;;;28.50;1.00;;;;;;5082273;28;20429;-83
2022/07/17 12:20:45;;;;;;;70.50;2.50;;;28.50;1.00;;;;;;5081573;28;20916;-83
2022/07/17 12:23:38;;;;;;;66.63;2.60;;;28.60;1.00;;;;;;5063508;28;20418;-83
2022/07/17 12:26:19;;;;;;;66.77;2.33;;;28.50;1.00;;;;;;5063770;28;20421;-83
2022/07/17 12:28:45;;;;;;;67.17;2.50;;;28.20;1.00;;;;;;5063943;28;20480;-83
2022/07/17 12:31:12;;;;;;;66.43;2.50;;;28.20;1.00;;;;;;5082122;28;20421;-83
2022/07/17 12:33:41;;;;;;;69.50;2.70;;;27.90;1.00;;;;;;5081179;28;20434;-82
2022/07/17 12:36:07;;;;;;;68.00;2.67;;;27.70;1.00;;;;;;5081618;28;20552;-84
2022/07/17 12:38:33;;;;;;;67.60;2.30;;;27.70;1.00;;;;;;5081252;28;20941;-83
2022/07/17 12:40:59;;;;;;;69.43;2.30;;;28.00;1.00;;;;;;5081721;28;20386;-83
2022/07/17 12:43:25;;;;;;;66.27;2.70;;;28.40;1.00;;;;;;5063715;28;20172;-83